Terminal Aerodrome Forecast
Issued by NWS Northern Indiana

Home | Current Version | Previous Version | Text Only | Print | Product List | Glossary Off
Versions: 1 2 3 4 5 6 7 8 9 10 11 12 13 14 15

000
FTUS43 KIWX 300900 AAA
TAFFWA
TAF AMD
KFWA 300953Z 3010/3106 32014G23KT P6SM -SN BKN035
     FM301200 34012KT P6SM BKN035
     FM302300 29006KT P6SM SCT030=

USA.gov is the U.S. government's official web portal to all federal, state and local government web resources and services.